NCAR-RAP Real-Time Weather Data

Output produced by METARs form (26 July 2014  13:09 UTC)
found at http://weather.rap.ucar.edu/surface/
 
Conditions at: K4O4 observed 26 July 2014  12:55 UTC
Temperature: 24.0°C (75°F)
Dewpoint: 22.0°C (72°F) [RH = 89%]
Pressure (altimeter): 30.02 inches Hg (1016.7 mb)
Winds: from the S (190 degrees) at 3 MPH (3 knots; 1.6 m/s)
Visibility: 10 or more miles (16+ km)
Ceiling: at least 12,000 feet AGL
Clouds: sky clear below 12,000 feet AGL
Present Weather: automated observation with no human augmentation;
there may or may not be significant weather present at this time
K4O4 261255Z AUTO 19003KT 10SM CLR 24/22 A3002 RMK AO2